Главная страница
METAR-TAF:

METAR-TAF

Аэропорты :

Pittsburgh International Airport

Питтсбург, Пенсильвания, США

широта: 40-30-14N, долгота: 080-15-59W, высота над уровнем моря: 366 м

Текущие метеонаблюдения

Эта сводка был подготовлена 46 минут назад, в 22:51 UTC
Ветер 3 Узел переменных направлений
Температура 14°C
Влажность 55%
Давление 1021 hPa
Видимость: 16.1 км
Рассеянная облачность на высоте 11000 фута
Рассеянная облачность на высоте 25000 фута

METAR: KPIT 212251Z VRB03KT 10SM BKN110 BKN250 14/05 A3014 RMK AO2 RAE05 SLP214 P0000 T01440050

Время: 19:37 (23:37 UTC)

Прогноз

Эта сводка был подготовлена 2 часа и 38 минут назад, в 20:59 UTC
Прогноз действительный с 21-го 21 UTC до 22-го 24 UTC
Ветер 8 Узел от восточно-северо-восточный
Видимость: 10 км
Рассеянная облачность на высоте 10000 фута
С 22-го 1600 UTC
Ветер 10 Узел от юго-восточный
Видимость: 10 км
Рассеянная облачность на высоте 20000 фута

TAF: KPIT 212059Z 2121/2224 06008KT P6SM BKN100 FM221600 14010KT P6SM BKN200

Метеонаблюдения и прогнозы для более 4000 аэропортов (сводки METAR и TAF).

Имеющиеся станции представлены на карте желтыми и красными точками.

Чтобы увидеть название станции, наведите на нее мышь.

Затем щелкните, чтобы увидеть метеонаблюдения и метеопрогнозы.

Управление картой: чтобы увеличить масштаб, щелкните зеленые кнопки с черным крестиком; чтобы уменьшить масштаб, щелкните зеленую кнопку с тире; для просмотра соседних карт щелкайте зеленые стрелки.


METAR-TAF: